Time;durP1;ratioP1;P1;durP2;ratioP2;P2;SDS_P1;SDS_P2;PMS_P1;PMS_P2;Temp;Humidity;BMP_temperature;BMP_pressure;BME280_temperature;BME280_humidity;BME280_pressure;Samples;Min_cycle;Max_cycle;Signal;HPM_P1;HPM_P2
2022/10/25 00:01:47;;;;;;;5.40;1.77;;;;;;;13.76;100.00;100683.25;5008487;28;20464;-69
2022/10/25 00:04:14;;;;;;;4.80;1.63;;;;;;;13.72;100.00;100681.50;4998547;28;21015;-70
2022/10/25 00:06:40;;;;;;;5.03;1.43;;;;;;;13.72;100.00;100685.03;5000491;28;20475;-69
2022/10/25 00:09:08;;;;;;;5.20;1.33;;;;;;;13.70;100.00;100684.56;5014973;28;20440;-69
2022/10/25 00:11:35;;;;;;;5.03;2.27;;;;;;;13.71;100.00;100680.69;5014078;28;20515;-69
2022/10/25 00:14:04;;;;;;;5.90;1.47;;;;;;;13.67;100.00;100677.00;5005739;28;20485;-69
2022/10/25 00:16:32;;;;;;;6.50;2.43;;;;;;;13.60;100.00;100691.09;4998694;28;20848;-69
2022/10/25 00:18:59;;;;;;;4.13;1.27;;;;;;;13.59;100.00;100686.78;5014794;28;20440;-69
2022/10/25 00:21:26;;;;;;;5.30;1.77;;;;;;;13.52;100.00;100691.09;5013886;28;20522;-69
2022/10/25 00:23:53;;;;;;;5.23;1.83;;;;;;;13.44;100.00;100689.97;5013454;28;20460;-69
2022/10/25 00:26:22;;;;;;;5.03;1.73;;;;;;;13.45;100.00;100679.88;4995068;28;20460;-69
2022/10/25 00:28:48;;;;;;;4.90;1.77;;;;;;;13.45;100.00;100685.31;4998429;28;20463;-69
2022/10/25 00:31:16;;;;;;;4.03;1.50;;;;;;;13.40;100.00;100685.47;5003076;28;20970;-69
2022/10/25 00:33:44;;;;;;;7.30;2.43;;;;;;;13.38;100.00;100683.88;5004304;28;20543;-68
2022/10/25 00:36:12;;;;;;;4.33;1.33;;;;;;;13.37;100.00;100686.91;5014480;28;20860;-68
2022/10/25 00:38:39;;;;;;;3.90;1.33;;;;;;;13.28;100.00;100676.03;5013596;28;20468;-69
2022/10/25 00:41:06;;;;;;;4.90;1.43;;;;;;;13.26;100.00;100683.69;5008134;28;20464;-68
2022/10/25 00:43:37;;;;;;;4.27;1.40;;;;;;;13.27;100.00;100684.47;4995196;28;20445;-68
2022/10/25 00:46:07;;;;;;;5.40;1.67;;;;;;;13.23;100.00;100683.50;5014276;28;20448;-68
2022/10/25 00:48:34;;;;;;;10.03;1.63;;;;;;;13.21;100.00;100681.09;5010884;28;20468;-69
2022/10/25 00:51:02;;;;;;;4.30;1.80;;;;;;;13.14;100.00;100686.16;4994027;28;20458;-68
2022/10/25 00:53:32;;;;;;;4.87;1.43;;;;;;;13.04;100.00;100679.09;4994636;28;20547;-68
2022/10/25 00:56:03;;;;;;;20.97;2.60;;;;;;;12.97;100.00;100686.94;4994386;28;20472;-69
2022/10/25 00:58:34;;;;;;;4.30;1.20;;;;;;;12.97;100.00;100691.53;5002195;28;20467;-69
2022/10/25 01:01:03;;;;;;;5.93;1.83;;;;;;;12.94;100.00;100687.56;5013116;28;20522;-69
2022/10/25 01:03:30;;;;;;;4.40;1.73;;;;;;;12.97;100.00;100691.53;4994501;28;20456;-68
2022/10/25 01:05:59;;;;;;;4.07;1.57;;;;;;;13.04;100.00;100697.34;4994125;28;20468;-69
2022/10/25 01:08:26;;;;;;;5.10;1.87;;;;;;;13.11;100.00;100686.81;5000773;28;20468;-68
2022/10/25 01:10:53;;;;;;;5.60;1.73;;;;;;;13.18;100.00;100689.06;4994968;28;20448;-69
2022/10/25 01:13:19;;;;;;;6.70;1.83;;;;;;;13.24;100.00;100691.38;5013777;28;20480;-69
2022/10/25 01:15:59;;;;;;;4.67;1.60;;;;;;;13.30;100.00;100681.94;5013142;28;20495;-68
2022/10/25 01:18:35;;;;;;;4.87;1.77;;;;;;;13.40;100.00;100682.75;5013903;28;20439;-70
2022/10/25 01:21:29;;;;;;;4.90;1.67;;;;;;;13.49;100.00;100681.63;5013085;28;20432;-70
2022/10/25 01:24:14;;;;;;;5.90;1.90;;;;;;;13.53;100.00;100681.81;4994165;28;20790;-70
2022/10/25 01:27:00;;;;;;;5.77;2.00;;;;;;;13.56;100.00;100676.53;4994325;28;20518;-70
2022/10/25 01:29:58;;;;;;;5.00;2.17;;;;;;;13.67;100.00;100677.00;4994065;28;20440;-68
2022/10/25 01:32:35;;;;;;;4.60;1.53;;;;;;;13.74;100.00;100688.22;5006253;28;20526;-69
2022/10/25 01:35:09;;;;;;;5.40;2.00;;;;;;;13.87;100.00;100686.47;5012414;28;20487;-70
2022/10/25 01:37:48;;;;;;;19.77;3.30;;;;;;;13.94;100.00;100689.50;5013502;28;20481;-70
2022/10/25 01:40:23;;;;;;;6.33;2.33;;;;;;;14.04;100.00;100688.41;5006923;28;20453;-68
2022/10/25 01:42:58;;;;;;;6.87;2.30;;;;;;;14.04;100.00;100691.13;4997323;28;20461;-69
2022/10/25 01:45:29;;;;;;;9.73;2.50;;;;;;;14.06;100.00;100691.59;5001286;28;20487;-69
2022/10/25 01:48:03;;;;;;;11.17;2.50;;;;;;;14.11;100.00;100691.44;5013415;28;20436;-69
2022/10/25 01:50:32;;;;;;;6.43;2.03;;;;;;;14.16;100.00;100688.53;5012642;28;20452;-69
2022/10/25 01:52:59;;;;;;;5.83;1.73;;;;;;;14.21;100.00;100684.84;5010002;28;20491;-69
2022/10/25 01:55:30;;;;;;;5.03;1.93;;;;;;;14.23;100.00;100686.13;4995363;28;20835;-68
2022/10/25 01:58:07;;;;;;;10.03;2.97;;;;;;;14.24;100.00;100686.94;4993883;28;20461;-68
2022/10/25 02:00:43;;;;;;;6.00;2.20;;;;;;;14.23;100.00;100688.06;4993733;28;20479;-68
2022/10/25 02:03:17;;;;;;;6.07;2.40;;;;;;;14.21;100.00;100682.94;4999175;28;20806;-68
2022/10/25 02:05:57;;;;;;;4.87;1.87;;;;;;;14.18;100.00;100682.78;4997364;28;21003;-69
2022/10/25 02:08:34;;;;;;;6.90;2.40;;;;;;;14.20;100.00;100684.03;5001026;28;20511;-68
2022/10/25 02:11:06;;;;;;;5.80;2.17;;;;;;;14.24;100.00;100695.91;4997692;28;20432;-68
2022/10/25 02:13:43;;;;;;;5.63;1.77;;;;;;;14.23;100.00;100690.78;5006963;28;20483;-68
2022/10/25 02:16:12;;;;;;;5.37;1.70;;;;;;;14.24;100.00;100687.72;5016839;28;20980;-68
2022/10/25 02:18:45;;;;;;;4.97;2.10;;;;;;;14.29;100.00;100695.72;5005224;28;20823;-68
2022/10/25 02:21:14;;;;;;;6.73;2.30;;;;;;;14.30;100.00;100694.63;4997470;28;20428;-68
2022/10/25 02:23:42;;;;;;;5.73;1.60;;;;;;;14.33;100.00;100699.41;5000704;28;20457;-69
2022/10/25 02:26:10;;;;;;;6.33;1.87;;;;;;;14.35;100.00;100697.19;4997380;28;20429;-68
2022/10/25 02:28:39;;;;;;;6.77;1.80;;;;;;;14.36;100.00;100696.03;5008325;28;20460;-71
2022/10/25 02:31:08;;;;;;;4.90;2.10;;;;;;;14.36;100.00;100697.97;5016806;28;20490;-70
2022/10/25 02:33:35;;;;;;;6.27;2.07;;;;;;;14.37;100.00;100700.38;5008597;28;20857;-71
2022/10/25 02:36:12;;;;;;;12.77;2.10;;;;;;;14.34;100.00;100700.22;5000208;28;20484;-70
2022/10/25 02:38:39;;;;;;;5.53;1.87;;;;;;;14.34;100.00;100695.59;5016795;28;20478;-70
2022/10/25 02:41:06;;;;;;;5.50;1.87;;;;;;;14.34;100.00;100692.84;5011950;28;20878;-70
2022/10/25 02:43:33;;;;;;;4.80;1.63;;;;;;;14.33;100.00;100688.50;5000725;28;20522;-70
2022/10/25 02:45:59;;;;;;;3.90;1.30;;;;;;;14.38;100.00;100696.50;5016008;28;21097;-69
2022/10/25 02:48:26;;;;;;;18.23;2.30;;;;;;;14.38;100.00;100701.16;5013130;28;20494;-70
2022/10/25 02:50:52;;;;;;;6.00;1.70;;;;;;;14.43;100.00;100702.91;4996608;28;20874;-72
2022/10/25 02:53:20;;;;;;;4.17;1.43;;;;;;;14.41;100.00;100708.69;4997439;28;20485;-71
2022/10/25 02:55:47;;;;;;;6.50;2.00;;;;;;;14.43;100.00;100713.81;5015058;28;20563;-70
2022/10/25 02:58:13;;;;;;;5.37;2.00;;;;;;;14.41;100.00;100705.19;5015543;28;20498;-69
2022/10/25 03:00:39;;;;;;;5.97;1.70;;;;;;;14.41;100.00;100710.63;5016059;28;20440;-69
2022/10/25 03:03:06;;;;;;;4.00;1.30;;;;;;;14.40;100.00;100709.81;5015582;28;20817;-69
2022/10/25 03:05:32;;;;;;;5.53;1.50;;;;;;;14.42;100.00;100706.78;4996556;28;20542;-68
2022/10/25 03:07:59;;;;;;;12.80;2.00;;;;;;;14.41;100.00;100716.06;4996325;28;20948;-69
2022/10/25 03:10:26;;;;;;;6.20;2.27;;;;;;;14.38;100.00;100710.13;5000169;28;20457;-68
2022/10/25 03:12:53;;;;;;;5.30;1.63;;;;;;;14.42;100.00;100710.28;4996057;28;20452;-69
2022/10/25 03:15:19;;;;;;;5.67;1.97;;;;;;;14.43;100.00;100719.25;5000122;28;20911;-69
2022/10/25 03:17:46;;;;;;;4.20;1.70;;;;;;;14.43;100.00;100719.25;4996415;28;20445;-69
2022/10/25 03:20:12;;;;;;;4.27;1.63;;;;;;;14.48;100.00;100719.94;4999772;28;20492;-68
2022/10/25 03:22:38;;;;;;;5.73;1.67;;;;;;;14.56;100.00;100718.31;4999602;28;20986;-68
2022/10/25 03:25:06;;;;;;;4.00;1.40;;;;;;;14.58;100.00;100724.25;5015472;28;20989;-69
2022/10/25 03:27:34;;;;;;;6.13;1.87;;;;;;;14.60;100.00;100725.50;5015092;28;20464;-69
2022/10/25 03:30:00;;;;;;;3.60;1.20;;;;;;;14.66;100.00;100717.97;5008563;28;20519;-69
2022/10/25 03:32:27;;;;;;;9.93;1.77;;;;;;;14.71;100.00;100728.72;4996092;28;20499;-68
2022/10/25 03:34:53;;;;;;;5.30;1.60;;;;;;;14.81;100.00;100725.63;4995853;28;20492;-68
2022/10/25 03:37:19;;;;;;;4.13;1.10;;;;;;;14.76;100.00;100731.25;4996078;28;20445;-69
2022/10/25 03:39:46;;;;;;;4.60;1.47;;;;;;;14.80;100.00;100729.47;4998053;28;20527;-69
2022/10/25 03:42:12;;;;;;;5.30;1.87;;;;;;;14.83;100.00;100736.19;4997177;28;20460;-69
2022/10/25 03:44:40;;;;;;;3.80;0.93;;;;;;;14.89;100.00;100737.63;4995937;28;20537;-69
2022/10/25 03:47:06;;;;;;;4.63;1.00;;;;;;;14.91;100.00;100740.03;4995636;28;21006;-69
2022/10/25 03:49:33;;;;;;;6.80;1.40;;;;;;;14.92;100.00;100742.44;4995907;28;20519;-68
2022/10/25 03:51:59;;;;;;;3.93;0.80;;;;;;;14.96;100.00;100746.09;4999167;28;20464;-68
2022/10/25 03:54:26;;;;;;;8.03;1.63;;;;;;;14.99;100.00;100744.66;5004131;28;20912;-68
2022/10/25 03:56:52;;;;;;;5.40;1.40;;;;;;;14.98;99.56;100751.25;5015238;28;20440;-69
2022/10/25 03:59:18;;;;;;;6.10;1.17;;;;;;;14.99;99.71;100747.38;5006822;28;20816;-69
2022/10/25 04:01:46;;;;;;;4.40;1.40;;;;;;;15.00;98.56;100748.97;5001052;28;20466;-69
2022/10/25 04:04:12;;;;;;;6.57;1.60;;;;;;;15.00;98.85;100749.78;5014988;28;20468;-69
2022/10/25 04:06:39;;;;;;;4.80;1.60;;;;;;;14.98;97.69;100753.97;5014287;28;20509;-69
2022/10/25 04:09:06;;;;;;;3.30;0.80;;;;;;;15.00;98.15;100759.88;5014282;28;20473;-69
2022/10/25 04:11:32;;;;;;;3.17;0.70;;;;;;;15.04;97.49;100758.13;5014187;28;20468;-68
2022/10/25 04:13:59;;;;;;;3.77;0.90;;;;;;;15.03;96.86;100757.31;5014902;28;20487;-69
2022/10/25 04:16:25;;;;;;;3.73;0.80;;;;;;;15.04;97.58;100767.09;5013998;28;20966;-69
2022/10/25 04:18:53;;;;;;;3.40;0.80;;;;;;;15.02;97.44;100752.19;5014925;28;20499;-68
2022/10/25 04:21:20;;;;;;;6.60;0.90;;;;;;;15.02;96.09;100754.94;5013343;28;20463;-68
2022/10/25 04:23:46;;;;;;;5.77;1.33;;;;;;;15.01;96.42;100756.06;5013074;28;20436;-69
2022/10/25 04:26:16;;;;;;;3.40;0.90;;;;;;;15.04;96.23;100763.56;5012077;28;20537;-68
2022/10/25 04:28:43;;;;;;;5.30;0.87;;;;;;;15.12;94.89;100762.75;5013187;28;20475;-68
2022/10/25 04:31:09;;;;;;;3.40;0.80;;;;;;;15.10;94.95;100765.81;4995059;28;20441;-68
2022/10/25 04:33:35;;;;;;;4.30;0.73;;;;;;;15.12;95.14;100765.47;4994685;28;20492;-69
2022/10/25 04:36:04;;;;;;;3.30;0.60;;;;;;;15.09;95.42;100760.66;5013065;28;20507;-70
2022/10/25 04:38:30;;;;;;;3.50;0.80;;;;;;;15.09;96.50;100761.44;4994956;28;20569;-69
2022/10/25 04:40:58;;;;;;;4.80;1.33;;;;;;;15.06;96.04;100756.66;5013527;28;20471;-70
2022/10/25 04:43:40;;;;;;;3.77;0.90;;;;;;;15.06;95.32;100761.34;5014379;28;20490;-69
2022/10/25 04:46:07;;;;;;;4.30;1.10;;;;;;;15.07;95.53;100758.28;5002288;28;20515;-70
2022/10/25 04:48:36;;;;;;;3.60;0.93;;;;;;;15.06;95.56;100755.88;4998982;28;20491;-72
2022/10/25 04:51:15;;;;;;;4.03;0.83;;;;;;;15.02;95.92;100755.72;5002722;28;20974;-73
2022/10/25 04:53:42;;;;;;;3.43;0.80;;;;;;;14.98;95.68;100756.69;5012721;28;20911;-70
2022/10/25 04:56:10;;;;;;;4.40;0.90;;;;;;;14.96;95.32;100754.28;5010255;28;20487;-69
2022/10/25 04:58:36;;;;;;;3.00;0.50;;;;;;;14.88;95.60;100757.88;5003617;28;20472;-69
2022/10/25 05:01:05;;;;;;;4.53;1.33;;;;;;;14.80;95.98;100754.03;5012409;28;20464;-69
2022/10/25 05:03:32;;;;;;;4.13;0.80;;;;;;;14.76;96.57;100757.72;5013165;28;20522;-69
2022/10/25 05:06:06;;;;;;;3.77;0.80;;;;;;;14.69;96.71;100762.88;5013027;28;20484;-69
2022/10/25 05:08:34;;;;;;;4.13;1.03;;;;;;;14.63;97.17;100763.03;5013652;28;20430;-69
2022/10/25 05:11:00;;;;;;;4.17;0.93;;;;;;;14.58;97.41;100757.75;5013031;28;20464;-69
2022/10/25 05:13:27;;;;;;;3.53;0.97;;;;;;;14.53;97.27;100762.59;5013855;28;20860;-69
2022/10/25 05:15:54;;;;;;;3.97;0.90;;;;;;;14.44;96.66;100764.50;5013456;28;21005;-69
2022/10/25 05:18:21;;;;;;;3.67;0.93;;;;;;;14.37;96.56;100765.78;5013772;28;20824;-69
2022/10/25 05:20:51;;;;;;;3.00;0.60;;;;;;;14.25;96.99;100762.88;5013772;28;20448;-69
2022/10/25 05:23:18;;;;;;;3.30;0.73;;;;;;;14.14;99.05;100765.13;5013758;28;20444;-69
2022/10/25 05:25:45;;;;;;;3.40;0.70;;;;;;;14.14;99.32;100764.34;5013688;28;20471;-69
2022/10/25 05:28:12;;;;;;;3.20;0.70;;;;;;;14.11;100.00;100770.41;5013372;28;20958;-69
2022/10/25 05:30:40;;;;;;;4.30;0.90;;;;;;;14.12;100.00;100770.13;5013646;28;20498;-69
2022/10/25 05:33:06;;;;;;;5.80;0.87;;;;;;;14.16;100.00;100764.00;5013545;28;20443;-69
2022/10/25 05:35:33;;;;;;;5.83;0.97;;;;;;;14.15;100.00;100765.94;5038027;23;20991;-70
2022/10/25 05:38:00;;;;;;;4.60;1.07;;;;;;;14.21;100.00;100772.03;5013252;28;20985;-70
2022/10/25 05:40:26;;;;;;;4.93;1.30;;;;;;;14.26;100.00;100780.84;5013714;28;20440;-70
2022/10/25 05:42:54;;;;;;;4.13;1.10;;;;;;;14.31;99.90;100788.06;5013442;28;20955;-71
2022/10/25 05:45:21;;;;;;;4.47;0.90;;;;;;;14.40;99.50;100786.13;5013787;28;20460;-70
2022/10/25 05:47:47;;;;;;;3.60;0.90;;;;;;;14.45;99.52;100799.59;5013724;28;20502;-71
2022/10/25 05:50:13;;;;;;;6.27;1.27;;;;;;;14.46;99.78;100793.00;5013583;28;20436;-70
2022/10/25 05:52:42;;;;;;;4.27;1.00;;;;;;;14.52;99.42;100796.41;5013287;28;20976;-70
2022/10/25 05:55:08;;;;;;;4.50;0.93;;;;;;;14.57;99.52;100809.91;5013389;28;20860;-69
2022/10/25 05:57:35;;;;;;;3.93;1.07;;;;;;;14.56;98.98;100809.06;5013508;28;20448;-70
2022/10/25 06:00:04;;;;;;;9.40;1.63;;;;;;;14.58;99.43;100814.22;5013495;28;20451;-69
2022/10/25 06:02:31;;;;;;;3.43;0.97;;;;;;;14.57;99.49;100813.41;5013540;28;20483;-70
2022/10/25 06:04:57;;;;;;;4.43;0.83;;;;;;;14.59;99.02;100815.81;5013435;28;20460;-70
2022/10/25 06:07:23;;;;;;;6.57;1.10;;;;;;;14.63;98.92;100814.84;5013517;28;20455;-70
2022/10/25 06:09:50;;;;;;;3.50;0.93;;;;;;;14.63;98.98;100816.78;5013089;28;20444;-70
2022/10/25 06:12:16;;;;;;;4.20;0.90;;;;;;;14.64;99.11;100810.97;5013374;28;20471;-70
2022/10/25 06:14:43;;;;;;;4.40;1.03;;;;;;;14.62;99.86;100815.97;5013695;28;20764;-71
2022/10/25 06:17:11;;;;;;;3.90;1.10;;;;;;;14.69;99.41;100825.56;5013471;28;20498;-68
2022/10/25 06:19:38;;;;;;;3.97;1.00;;;;;;;14.70;99.01;100832.63;5013237;28;20444;-68
2022/10/25 06:22:04;;;;;;;3.37;0.60;;;;;;;14.73;98.96;100826.53;5013334;28;20467;-70
2022/10/25 06:24:31;;;;;;;5.60;1.13;;;;;;;14.77;98.70;100835.69;5012981;28;20975;-71
2022/10/25 06:26:57;;;;;;;5.57;1.07;;;;;;;14.81;98.29;100839.38;5013206;28;20456;-71
2022/10/25 06:29:23;;;;;;;3.40;0.70;;;;;;;14.86;98.25;100842.72;5012806;28;20978;-71
2022/10/25 06:31:50;;;;;;;4.07;1.27;;;;;;;14.88;97.83;100851.41;5013289;28;20822;-71
2022/10/25 06:34:19;;;;;;;4.13;1.07;;;;;;;14.91;98.00;100849.13;5012979;28;20483;-71
2022/10/25 06:36:45;;;;;;;7.53;1.10;;;;;;;14.88;98.38;100850.59;5013163;28;20448;-69
2022/10/25 06:39:12;;;;;;;3.97;1.10;;;;;;;14.87;98.26;100855.25;5013154;28;20466;-70
2022/10/25 06:41:39;;;;;;;3.57;0.80;;;;;;;14.93;98.23;100858.59;5012964;28;20835;-71
2022/10/25 06:44:06;;;;;;;3.10;0.73;;;;;;;14.97;97.62;100856.03;5013244;28;20444;-71
2022/10/25 06:46:35;;;;;;;4.17;1.23;;;;;;;15.00;97.89;100861.63;5012781;28;20479;-74
2022/10/25 06:49:04;;;;;;;4.07;1.20;;;;;;;15.02;97.77;100864.03;5015022;28;20444;-71
2022/10/25 06:51:33;;;;;;;5.23;0.60;;;;;;;15.03;98.19;100862.91;5016720;28;20502;-69
2022/10/25 06:54:03;;;;;;;3.20;0.63;;;;;;;15.05;98.19;100861.47;5016216;28;21007;-70
2022/10/25 06:56:30;;;;;;;5.60;1.00;;;;;;;15.06;97.69;100867.72;5016414;28;20576;-70
2022/10/25 06:58:57;;;;;;;4.60;0.77;;;;;;;15.07;98.24;100880.25;5016544;28;20467;-70
2022/10/25 07:01:25;;;;;;;3.70;1.00;;;;;;;15.11;98.16;100883.94;5016435;28;20455;-70
2022/10/25 07:03:52;;;;;;;4.43;0.80;;;;;;;15.17;97.56;100882.63;5016503;28;20494;-69
2022/10/25 07:06:22;;;;;;;7.53;0.97;;;;;;;15.20;97.09;100887.44;5016342;28;20495;-70
2022/10/25 07:08:53;;;;;;;4.40;0.70;;;;;;;15.28;97.19;100886.63;5016427;28;20440;-69
2022/10/25 07:11:20;;;;;;;8.93;0.80;;;;;;;15.30;96.99;100895.28;5015946;28;20440;-71
2022/10/25 07:13:47;;;;;;;3.27;0.80;;;;;;;15.26;97.68;100899.78;5016487;28;20439;-71
2022/10/25 07:16:15;;;;;;;3.83;0.80;;;;;;;15.26;97.83;100899.78;5016382;28;20483;-70
2022/10/25 07:18:42;;;;;;;4.27;0.90;;;;;;;15.21;99.45;100901.88;5016264;28;20502;-70
2022/10/25 07:21:11;;;;;;;3.87;0.53;;;;;;;15.10;100.00;100896.78;5016179;28;20506;-70
2022/10/25 07:23:41;;;;;;;3.50;0.80;;;;;;;15.00;100.00;100901.75;5016165;28;20436;-70
2022/10/25 07:26:10;;;;;;;4.60;0.90;;;;;;;14.90;100.00;100902.88;5016016;28;20496;-71
2022/10/25 07:28:37;;;;;;;4.83;1.00;;;;;;;14.84;100.00;100907.72;5016123;28;20451;-71
2022/10/25 07:31:03;;;;;;;3.40;0.70;;;;;;;14.76;100.00;100908.50;5016134;28;20467;-70
2022/10/25 07:33:31;;;;;;;6.77;1.13;;;;;;;14.62;100.00;100907.88;5015864;28;20439;-71
2022/10/25 07:35:57;;;;;;;4.90;1.00;;;;;;;14.59;100.00;100908.50;5015859;28;20491;-71
2022/10/25 07:38:23;;;;;;;5.20;0.97;;;;;;;14.53;100.00;100913.31;5015779;28;21020;-72
2022/10/25 07:40:55;;;;;;;5.30;0.93;;;;;;;14.51;100.00;100904.63;5016250;28;20447;-72
2022/10/25 07:43:23;;;;;;;4.00;0.90;;;;;;;14.50;100.00;100904.97;5015840;28;20476;-72
2022/10/25 07:45:50;;;;;;;3.67;1.10;;;;;;;14.46;100.00;100914.88;5015670;28;20468;-72
2022/10/25 07:48:16;;;;;;;6.60;0.90;;;;;;;14.42;100.00;100898.34;5015709;28;20455;-71
2022/10/25 07:50:43;;;;;;;4.23;1.10;;;;;;;14.43;100.00;100915.50;5015253;28;20966;-69
2022/10/25 07:53:09;;;;;;;3.80;0.90;;;;;;;14.34;100.00;100910.03;5015412;28;20448;-72
2022/10/25 07:55:35;;;;;;;4.03;0.90;;;;;;;14.30;100.00;100912.63;5015410;28;20488;-72
2022/10/25 07:58:04;;;;;;;5.43;1.40;;;;;;;14.29;100.00;100905.53;5010163;28;20456;-72
2022/10/25 08:00:32;;;;;;;8.30;1.47;;;;;;;14.29;100.00;100912.91;5009864;28;20817;-72
2022/10/25 08:02:58;;;;;;;9.27;1.00;;;;;;;14.23;100.00;100909.53;5011511;28;20468;-71
2022/10/25 08:05:25;;;;;;;6.93;1.07;;;;;;;14.26;100.00;100917.09;5014430;28;20480;-71
2022/10/25 08:07:52;;;;;;;4.23;1.23;;;;;;;14.31;100.00;100918.88;5003910;28;20511;-72
2022/10/25 08:10:19;;;;;;;6.93;1.37;;;;;;;14.34;100.00;100918.22;5002959;28;20468;-71
2022/10/25 08:12:46;;;;;;;4.03;1.07;;;;;;;14.39;100.00;100916.16;5007500;28;20460;-71
2022/10/25 08:15:13;;;;;;;4.07;0.70;;;;;;;14.46;100.00;100914.88;5000339;28;20999;-71
2022/10/25 08:17:41;;;;;;;3.97;1.03;;;;;;;14.55;100.00;100918.44;4995466;28;20477;-71
2022/10/25 08:20:08;;;;;;;6.30;1.33;;;;;;;14.54;100.00;100916.84;5010130;28;20463;-71
2022/10/25 08:22:34;;;;;;;4.20;0.93;;;;;;;14.56;100.00;100925.50;5015189;28;20868;-71
2022/10/25 08:25:01;;;;;;;13.93;1.30;;;;;;;14.63;100.00;100921.16;5013112;28;20849;-71
2022/10/25 08:27:28;;;;;;;3.60;1.00;;;;;;;14.69;100.00;100918.28;5011169;28;20491;-72
2022/10/25 08:29:54;;;;;;;6.40;1.33;;;;;;;14.71;100.00;100919.59;5014550;28;20966;-71
2022/10/25 08:32:20;;;;;;;6.13;1.10;;;;;;;14.75;100.00;100922.47;5014039;28;20475;-71
2022/10/25 08:34:48;;;;;;;4.13;1.10;;;;;;;14.90;100.00;100919.25;5006920;28;21072;-72
2022/10/25 08:37:15;;;;;;;4.33;1.13;;;;;;;14.96;100.00;100919.88;4998881;28;20460;-71
2022/10/25 08:39:42;;;;;;;5.30;1.30;;;;;;;15.09;100.00;100922.44;4995093;28;20822;-71
2022/10/25 08:42:20;;;;;;;5.43;1.37;;;;;;;15.30;100.00;100933.47;5004238;28;20900;-72
2022/10/25 08:44:53;;;;;;;7.23;1.10;;;;;;;15.43;100.00;100930.91;5013161;28;20545;-71
2022/10/25 08:47:25;;;;;;;4.83;1.50;;;;;;;15.41;100.00;100939.41;5010873;28;20456;-72
2022/10/25 08:49:57;;;;;;;11.47;1.30;;;;;;;15.47;100.00;100935.38;5014552;28;20437;-71
2022/10/25 08:52:29;;;;;;;3.60;0.90;;;;;;;15.53;100.00;100941.47;5006637;28;20465;-71
2022/10/25 08:54:58;;;;;;;3.40;0.80;;;;;;;15.52;100.00;100948.84;5011253;28;20877;-72
2022/10/25 08:57:26;;;;;;;3.70;1.10;;;;;;;15.56;100.00;100940.81;5002050;28;20444;-71
2022/10/25 08:59:55;;;;;;;3.77;1.00;;;;;;;15.59;100.00;100946.44;5006075;28;20467;-71
2022/10/25 09:02:28;;;;;;;5.13;1.17;;;;;;;15.63;100.00;100949.31;5013507;28;20464;-72
2022/10/25 09:04:56;;;;;;;4.17;1.10;;;;;;;15.61;100.00;100948.81;5013110;28;21115;-70
2022/10/25 09:07:38;;;;;;;7.10;1.20;;;;;;;15.59;100.00;100953.81;5006463;28;20465;-72
2022/10/25 09:10:15;;;;;;;3.50;0.83;;;;;;;15.57;100.00;100953.34;4999037;28;20478;-71
2022/10/25 09:12:49;;;;;;;6.23;1.10;;;;;;;15.51;100.00;100951.91;5001828;28;20459;-72
2022/10/25 09:15:37;;;;;;;4.27;1.20;;;;;;;15.61;100.00;100959.75;5009178;28;21042;-70
2022/10/25 09:18:13;;;;;;;7.00;2.23;;;;;;;15.74;100.00;100955.25;4997191;28;20525;-72
2022/10/25 09:20:48;;;;;;;7.27;1.37;;;;;;;15.88;100.00;100959.34;4998893;28;20886;-72
2022/10/25 09:23:21;;;;;;;4.27;1.23;;;;;;;15.92;100.00;100962.25;5006960;28;20488;-69
2022/10/25 09:25:56;;;;;;;3.60;0.80;;;;;;;15.87;100.00;100956.97;5013175;28;20483;-71
2022/10/25 09:28:29;;;;;;;4.13;0.80;;;;;;;15.96;100.00;100959.66;5012622;28;20506;-71
2022/10/25 09:30:59;;;;;;;12.37;2.00;;;;;;;16.15;100.00;100974.50;5009675;28;20846;-70
2022/10/25 09:33:29;;;;;;;7.93;1.40;;;;;;;16.23;100.00;100966.59;5011727;28;20464;-73
2022/10/25 09:35:59;;;;;;;4.67;1.40;;;;;;;16.42;100.00;100963.44;5002808;28;20480;-72
2022/10/25 09:38:32;;;;;;;6.07;1.20;;;;;;;16.56;100.00;100969.50;5010936;28;20475;-72
2022/10/25 09:41:02;;;;;;;8.03;1.73;;;;;;;16.55;99.58;100970.59;5008959;28;20464;-70
2022/10/25 09:43:35;;;;;;;5.60;1.60;;;;;;;16.68;99.50;100966.00;5009953;28;20487;-72
2022/10/25 09:46:08;;;;;;;3.70;0.80;;;;;;;16.74;99.06;100962.78;5010415;28;20534;-72
2022/10/25 09:48:45;;;;;;;4.33;1.37;;;;;;;16.80;97.54;100966.91;5009939;28;20463;-72
2022/10/25 09:51:17;;;;;;;8.60;1.57;;;;;;;16.69;95.52;100976.63;5010328;28;20456;-72
2022/10/25 09:53:46;;;;;;;3.77;0.97;;;;;;;16.68;95.59;100969.53;5007499;28;20514;-74
2022/10/25 09:56:12;;;;;;;5.53;1.10;;;;;;;16.68;95.60;100985.16;5012952;28;20484;-72
2022/10/25 09:58:41;;;;;;;6.70;1.63;;;;;;;16.65;96.85;100981.16;5006149;28;20460;-71
2022/10/25 10:01:14;;;;;;;16.50;1.77;;;;;;;16.65;96.06;100986.63;5009522;28;20472;-72
2022/10/25 10:03:41;;;;;;;4.13;1.27;;;;;;;16.69;95.11;100990.31;5009499;28;20460;-71
2022/10/25 10:06:20;;;;;;;15.33;1.90;;;;;;;16.70;94.69;100988.38;5009481;28;20508;-72
2022/10/25 10:08:51;;;;;;;3.90;1.40;;;;;;;16.63;94.30;100995.16;5011439;28;20506;-72
2022/10/25 10:11:19;;;;;;;5.57;1.67;;;;;;;16.60;93.38;101000.47;5011302;28;20475;-71
2022/10/25 10:13:49;;;;;;;4.80;1.43;;;;;;;16.57;96.32;100992.97;5009519;28;20599;-71
2022/10/25 10:16:20;;;;;;;4.70;1.40;;;;;;;16.55;94.34;101000.69;5010997;28;20503;-69
2022/10/25 10:18:47;;;;;;;4.17;1.27;;;;;;;16.57;93.71;101001.16;5012893;28;20511;-71
2022/10/25 10:21:17;;;;;;;6.83;2.20;;;;;;;16.53;96.16;101000.22;5009677;28;20464;-73
2022/10/25 10:23:52;;;;;;;6.40;1.17;;;;;;;16.56;93.94;100999.56;5004252;28;20452;-72
2022/10/25 10:26:23;;;;;;;15.03;1.50;;;;;;;16.55;92.38;100997.94;5011587;28;20476;-72
2022/10/25 10:28:54;;;;;;;4.57;1.53;;;;;;;16.49;92.44;100999.28;5016762;28;20428;-72
2022/10/25 10:31:21;;;;;;;3.63;1.10;;;;;;;16.55;92.59;101004.22;5015421;28;20463;-73
2022/10/25 10:33:49;;;;;;;4.03;1.27;;;;;;;16.61;92.41;101013.84;5012778;28;20472;-70
2022/10/25 10:36:23;;;;;;;3.93;1.23;;;;;;;16.70;91.78;101007.53;5011042;28;20496;-71
2022/10/25 10:38:51;;;;;;;10.93;2.53;;;;;;;16.80;90.11;101010.69;5012642;28;20525;-72
2022/10/25 10:41:24;;;;;;;6.50;1.63;;;;;;;16.78;91.88;101007.50;5014415;28;20464;-71
2022/10/25 10:43:51;;;;;;;3.90;1.20;;;;;;;16.81;93.31;101006.00;5013010;28;20461;-72
2022/10/25 10:46:20;;;;;;;4.63;1.07;;;;;;;16.86;93.23;101014.03;5011769;28;20487;-71
2022/10/25 10:48:53;;;;;;;3.80;1.10;;;;;;;16.92;92.64;101006.44;5009653;28;20953;-69
2022/10/25 10:51:33;;;;;;;10.73;1.60;;;;;;;16.97;90.97;101008.97;5016673;28;20431;-76
2022/10/25 10:54:14;;;;;;;5.23;1.50;;;;;;;16.99;92.41;101004.75;5013441;28;20457;-76
2022/10/25 10:56:40;;;;;;;5.43;1.30;;;;;;;17.06;90.88;101006.97;4996837;28;20465;-71
2022/10/25 10:59:27;;;;;;;14.10;1.90;;;;;;;17.15;88.76;101010.44;5010403;28;20471;-71
2022/10/25 11:01:55;;;;;;;3.70;1.10;;;;;;;17.22;88.72;101002.50;5011933;28;20467;-69
2022/10/25 11:04:21;;;;;;;3.70;1.30;;;;;;;17.21;89.05;101009.09;5013360;28;20494;-70
2022/10/25 11:06:48;;;;;;;3.90;1.30;;;;;;;17.27;87.86;101007.75;5015994;28;20452;-70
2022/10/25 11:09:22;;;;;;;4.30;1.43;;;;;;;17.44;87.86;101005.97;5014629;28;20467;-69
2022/10/25 11:12:05;;;;;;;4.73;1.20;;;;;;;17.55;86.19;101015.38;5015006;28;20976;-70
2022/10/25 11:14:31;;;;;;;3.73;1.40;;;;;;;17.54;86.21;101022.00;5012111;28;20476;-68
2022/10/25 11:17:05;;;;;;;3.83;1.10;;;;;;;17.54;87.28;101011.06;5015146;28;20483;-69
2022/10/25 11:19:46;;;;;;;16.43;1.63;;;;;;;17.57;85.81;101015.84;5015362;28;20510;-68
2022/10/25 11:22:41;;;;;;;4.30;0.93;;;;;;;17.47;86.21;101014.31;5014362;28;20456;-68
2022/10/25 11:25:21;;;;;;;6.83;1.10;;;;;;;17.43;86.22;101016.13;5006511;28;20480;-70
2022/10/25 11:28:01;;;;;;;5.10;1.23;;;;;;;17.46;86.35;101009.19;5015142;28;20456;-68
2022/10/25 11:30:34;;;;;;;4.37;1.50;;;;;;;17.50;86.49;101013.66;5015959;28;20429;-69